^^
Your Local Weather - Clay, NY Station Historical Data
Daily Summary for January 1, 2017 Units:  Metric    English   Both
« Previous Day
Next Day »
Daily Weekly Monthly Yearly Custom
  High: Low: Average:
Temperature: 4.5 °C -5.1 °C 0.4 °C
Dew Point: 0.3 °C -7.2 °C -4.9 °C
Humidity: 86% 49% 69%
Wind Speed: 9.7km/h 0km/h 4km/h
Wind Gust: 22.5km/h - -
Wind- - WSW
Pressure: 1028 hPa 1005.3 hPa -
Precipitation: 2.54 mm    
Historical Graphs
 
 
Tabular Data for January 1, 2017
Time Temperature Dew Point Pressure Wind Wind Speed Wind Gust Humidity Rainfall Rate (Hourly) solar
00:06 2.8 °C 0.2 °C 1005.3 hPa SSW 6.4 km/h 6.4 km/h 83% 1.02 mm 0 W/m2
00:12 2.8 °C 0.2 °C 1005.3 hPa SSW 4.8 km/h 6.4 km/h 83% 0 mm 0 W/m2
00:18 2.9 °C 0.1 °C 1005.3 hPa SSW 6.4 km/h 8 km/h 82% 0 mm 0 W/m2
00:24 3.1 °C 0.1 °C 1005.3 hPa WSW 6.4 km/h 9.7 km/h 81% 0 mm 0 W/m2
00:30 3.2 °C 0.2 °C 1005.3 hPa SW 6.4 km/h 6.4 km/h 81% 0 mm 0 W/m2
00:35 3.3 °C 0.2 °C 1005.3 hPa SSW 6.4 km/h 6.4 km/h 80% 0 mm 0 W/m2
00:42 3.3 °C 0.2 °C 1005.3 hPa SW 6.4 km/h 6.4 km/h 80% 0 mm 0 W/m2
00:48 3.3 °C 0.2 °C 1005.3 hPa WSW 6.4 km/h 8 km/h 80% 0 mm 0 W/m2
00:54 3.3 °C 0.2 °C 1005.6 hPa SW 6.4 km/h 6.4 km/h 80% 0 mm 0 W/m2
01:00 3.4 °C 0.1 °C 1005.6 hPa SW 6.4 km/h 8 km/h 79% 0 mm 0 W/m2
01:06 3.5 °C 0.2 °C 1005.6 hPa SW 6.4 km/h 8 km/h 79% 0 mm 0 W/m2
01:12 3.6 °C 0.3 °C 1005.6 hPa WSW 8 km/h 9.7 km/h 79% 0 mm 0 W/m2
01:18 3.6 °C 0.3 °C 1006 hPa SW 6.4 km/h 9.7 km/h 79% 1.27 mm 0 W/m2
01:24 3.3 °C 0.2 °C 1007 hPa NW 6.4 km/h 17.7 km/h 80% 1.27 mm 0 W/m2
01:30 2.6 °C -0.2 °C 1007.3 hPa WNW 9.7 km/h 9.7 km/h 82% 1.27 mm 0 W/m2
01:36 2.3 °C -0.5 °C 1007.7 hPa WNW 8 km/h 11.3 km/h 82% 1.27 mm 0 W/m2
01:42 2.1 °C -0.7 °C 1007.7 hPa West 6.4 km/h 6.4 km/h 82% 1.02 mm 0 W/m2
01:48 1.9 °C -0.7 °C 1008 hPa West 6.4 km/h 6.4 km/h 83% 0 mm 0 W/m2
01:54 1.9 °C -0.8 °C 1008.4 hPa WSW 6.4 km/h 8 km/h 82% 0 mm 0 W/m2
02:00 1.8 °C -0.9 °C 1008.7 hPa WNW 6.4 km/h 6.4 km/h 82% 0 mm 0 W/m2
02:06 1.7 °C -1.2 °C 1008.7 hPa West 6.4 km/h 9.7 km/h 81% 0 mm 0 W/m2
02:12 1.7 °C -1.3 °C 1009 hPa WNW 6.4 km/h 11.3 km/h 80% 0 mm 0 W/m2
02:18 1.8 °C -1.8 °C 1009.4 hPa WNW 6.4 km/h 11.3 km/h 77% 0 mm 0 W/m2
02:24 1.9 °C -1.8 °C 1009.4 hPa WNW 8 km/h 9.7 km/h 76% 0 mm 0 W/m2
02:30 1.9 °C -2 °C 1009.7 hPa NW 6.4 km/h 6.4 km/h 75% 0 mm 0 W/m2
02:36 1.9 °C -1.8 °C 1009.7 hPa WNW 6.4 km/h 9.7 km/h 76% 0 mm 0 W/m2
02:42 1.9 °C -2 °C 1009.7 hPa NW 6.4 km/h 11.3 km/h 75% 0 mm 0 W/m2
02:48 1.9 °C -2 °C 1010 hPa West 6.4 km/h 11.3 km/h 75% 0 mm 0 W/m2
02:54 1.9 °C -2.2 °C 1010 hPa West 6.4 km/h 14.5 km/h 74% 0 mm 0 W/m2
03:00 1.9 °C -2.4 °C 1010 hPa WNW 8 km/h 9.7 km/h 73% 0 mm 0 W/m2
03:06 2 °C -2.7 °C 1010.4 hPa SW 8 km/h 9.7 km/h 71% 0 mm 0 W/m2
03:12 2 °C -2.9 °C 1010.4 hPa West 8 km/h 9.7 km/h 70% 0 mm 0 W/m2
03:18 1.9 °C -2.9 °C 1010.7 hPa West 8 km/h 11.3 km/h 70% 0 mm 0 W/m2
03:24 1.9 °C -3.2 °C 1010.7 hPa West 8 km/h 14.5 km/h 69% 0 mm 0 W/m2
03:30 1.9 °C -3.6 °C 1010.7 hPa WNW 9.7 km/h 9.7 km/h 67% 0 mm 0 W/m2
03:36 1.8 °C -3.7 °C 1011.1 hPa West 9.7 km/h 14.5 km/h 67% 0 mm 0 W/m2
03:42 1.8 °C -4.1 °C 1011.4 hPa WNW 9.7 km/h 11.3 km/h 65% 0 mm 0 W/m2
03:48 1.8 °C -4.1 °C 1011.4 hPa West 8 km/h 11.3 km/h 65% 0 mm 0 W/m2
03:54 1.8 °C -4.3 °C 1011.4 hPa WNW 8 km/h 22.5 km/h 64% 0 mm 0 W/m2
04:00 1.7 °C -4.4 °C 1011.4 hPa WNW 6.4 km/h 6.4 km/h 64% 0 mm 0 W/m2
04:06 1.7 °C -4.6 °C 1011.7 hPa SW 8 km/h 12.9 km/h 63% 0 mm 0 W/m2
04:12 1.7 °C -4.6 °C 1011.7 hPa West 8 km/h 8 km/h 63% 0 mm 0 W/m2
04:18 1.6 °C -4.7 °C 1012.1 hPa SW 8 km/h 17.7 km/h 63% 0 mm 0 W/m2
04:24 1.6 °C -4.7 °C 1012.1 hPa West 6.4 km/h 11.3 km/h 63% 0 mm 0 W/m2
04:30 1.6 °C -4.9 °C 1012.4 hPa West 8 km/h 8 km/h 62% 0 mm 0 W/m2
04:36 1.6 °C -5.2 °C 1012.4 hPa WNW 8 km/h 12.9 km/h 61% 0 mm 0 W/m2
04:42 1.6 °C -4.9 °C 1012.8 hPa West 8 km/h 8 km/h 62% 0 mm 0 W/m2
04:48 1.6 °C -5.2 °C 1012.8 hPa West 8 km/h 14.5 km/h 61% 0 mm 0 W/m2
04:54 1.6 °C -4.9 °C 1013.1 hPa WNW 9.7 km/h 17.7 km/h 62% 0 mm 0 W/m2
05:00 1.4 °C -5.1 °C 1013.1 hPa NW 9.7 km/h 16.1 km/h 62% 0 mm 0 W/m2
05:06 1.4 °C -5.1 °C 1013.4 hPa West 8 km/h 16.1 km/h 62% 0 mm 0 W/m2
05:12 1.4 °C -4.9 °C 1013.4 hPa WSW 8 km/h 9.7 km/h 63% 0 mm 0 W/m2
05:18 1.3 °C -4.9 °C 1013.8 hPa SW 8 km/h 9.7 km/h 63% 0 mm 0 W/m2
05:24 1.3 °C -5 °C 1013.8 hPa West 6.4 km/h 16.1 km/h 63% 0 mm 0 W/m2
05:30 1.3 °C -5 °C 1013.8 hPa NW 8 km/h 8 km/h 63% 0 mm 0 W/m2
05:36 1.3 °C -5 °C 1013.8 hPa West 9.7 km/h 9.7 km/h 63% 0 mm 0 W/m2
05:42 1.2 °C -5.1 °C 1013.8 hPa West 8 km/h 8 km/h 63% 0 mm 0 W/m2
05:48 1.2 °C -5.1 °C 1013.8 hPa WSW 8 km/h 12.9 km/h 63% 0 mm 0 W/m2
05:54 1.2 °C -4.9 °C 1014.1 hPa WSW 6.4 km/h 8 km/h 64% 0 mm 0 W/m2
06:00 1.2 °C -5.1 °C 1014.1 hPa WSW 6.4 km/h 6.4 km/h 63% 0 mm 0 W/m2
06:06 1.2 °C -5.3 °C 1014.4 hPa WSW 8 km/h 16.1 km/h 62% 0 mm 0 W/m2
06:12 1.2 °C -5.3 °C 1014.4 hPa WSW 9.7 km/h 9.7 km/h 62% 0 mm 0 W/m2
06:18 1.2 °C -5.3 °C 1014.4 hPa WSW 6.4 km/h 11.3 km/h 62% 0 mm 0 W/m2
06:24 1.2 °C -5.3 °C 1014.4 hPa West 8 km/h 16.1 km/h 62% 0 mm 0 W/m2
06:30 1.2 °C -5.1 °C 1014.8 hPa West 8 km/h 11.3 km/h 63% 0 mm 0 W/m2
06:36 1.1 °C -5.4 °C 1014.8 hPa SW 6.4 km/h 11.3 km/h 62% 0 mm 0 W/m2
06:42 1.1 °C -5.4 °C 1015.1 hPa WSW 6.4 km/h 9.7 km/h 62% 0 mm 0 W/m2
06:48 1.1 °C -5.2 °C 1015.1 hPa West 4.8 km/h 9.7 km/h 63% 0 mm 0 W/m2
06:54 1.1 °C -5.4 °C 1015.5 hPa WSW 3.2 km/h 6.4 km/h 62% 0 mm 0 W/m2
07:00 1 °C -5.3 °C 1015.5 hPa West 4.8 km/h 9.7 km/h 63% 0 mm 0 W/m2
07:06 1.1 °C -5.2 °C 1015.8 hPa WNW 6.4 km/h 9.7 km/h 63% 0 mm 0 W/m2
07:12 1 °C -5.5 °C 1015.8 hPa West 4.8 km/h 14.5 km/h 62% 0 mm 0 W/m2
07:18 0.9 °C -5.3 °C 1016.1 hPa WSW 4.8 km/h 14.5 km/h 63% 0 mm 0 W/m2
07:24 0.9 °C -5.3 °C 1016.1 hPa WSW 6.4 km/h 9.7 km/h 63% 0 mm 0 W/m2
07:30 0.9 °C -5.3 °C 1016.5 hPa West 4.8 km/h 4.8 km/h 63% 0 mm 0 W/m2
07:36 0.9 °C -5.3 °C 1016.5 hPa West 6.4 km/h 14.5 km/h 63% 0 mm 0 W/m2
07:42 0.9 °C -5.4 °C 1016.8 hPa WSW 8 km/h 8 km/h 63% 0 mm 0 W/m2
07:48 0.9 °C -5.4 °C 1017.2 hPa West 6.4 km/h 9.7 km/h 63% 0 mm 0 W/m2
07:54 0.9 °C -5.4 °C 1017.2 hPa WSW 4.8 km/h 8 km/h 63% 0 mm 0 W/m2
08:00 0.9 °C -5.4 °C 1017.2 hPa West 6.4 km/h 6.4 km/h 63% 0 mm 5 W/m2
08:06 0.8 °C -5.4 °C 1017.5 hPa WSW 4.8 km/h 6.4 km/h 63% 0 mm 5 W/m2
08:12 0.8 °C -5.3 °C 1017.5 hPa SW 4.8 km/h 9.7 km/h 64% 0 mm 9 W/m2
08:18 0.7 °C -5.5 °C 1017.8 hPa NW 4.8 km/h 9.7 km/h 63% 0 mm 7 W/m2
08:24 0.7 °C -5.6 °C 1017.8 hPa SW 6.4 km/h 9.7 km/h 63% 0 mm 12 W/m2
08:30 0.7 °C -5.6 °C 1018.2 hPa SSW 6.4 km/h 11.3 km/h 63% 0 mm 14 W/m2
08:36 0.6 °C -5.4 °C 1018.2 hPa SW 4.8 km/h 11.3 km/h 64% 0 mm 19 W/m2
08:42 0.6 °C -5.5 °C 1018.5 hPa WSW 4.8 km/h 8 km/h 64% 0 mm 21 W/m2
08:48 0.6 °C -5.5 °C 1018.5 hPa NW 4.8 km/h 11.3 km/h 64% 0 mm 30 W/m2
08:54 0.5 °C -5.6 °C 1018.5 hPa WSW 6.4 km/h 6.4 km/h 64% 0 mm 39 W/m2
09:00 0.5 °C -5.6 °C 1018.5 hPa WSW 4.8 km/h 6.4 km/h 64% 0 mm 33 W/m2
09:06 0.4 °C -5.6 °C 1018.8 hPa WSW 4.8 km/h 6.4 km/h 64% 0 mm 47 W/m2
09:12 0.4 °C -5.6 °C 1019.2 hPa West 6.4 km/h 14.5 km/h 64% 0 mm 46 W/m2
09:18 0.5 °C -5.3 °C 1019.2 hPa WSW 8 km/h 14.5 km/h 65% 0 mm 42 W/m2
09:24 0.4 °C -5.4 °C 1019.2 hPa SSW 6.4 km/h 8 km/h 65% 0 mm 56 W/m2
09:30 0.4 °C -5.4 °C 1019.2 hPa West 6.4 km/h 6.4 km/h 65% 0 mm 44 W/m2
09:36 0.5 °C -5.6 °C 1019.5 hPa West 6.4 km/h 16.1 km/h 64% 0 mm 72 W/m2
09:42 0.6 °C -5.5 °C 1019.5 hPa WNW 8 km/h 12.9 km/h 64% 0 mm 91 W/m2
09:48 0.6 °C -5.4 °C 1019.9 hPa West 6.4 km/h 12.9 km/h 64% 0 mm 83 W/m2
09:56 0.7 °C -5.4 °C 1020.2 hPa WSW 4.8 km/h 16.1 km/h 64% 0 mm 77 W/m2
10:02 0.8 °C -5.5 °C 1020.2 hPa WSW 4.8 km/h 9.7 km/h 63% 0 mm 100 W/m2
10:08 0.8 °C -5.4 °C 1020.2 hPa West 4.8 km/h 9.7 km/h 63% 0 mm 104 W/m2
10:14 0.9 °C -5.3 °C 1020.2 hPa WSW 4.8 km/h 8 km/h 63% 0 mm 114 W/m2
10:20 1 °C -5.3 °C 1020.5 hPa West 6.4 km/h 14.5 km/h 63% 0 mm 88 W/m2
10:26 1 °C -5.3 °C 1020.9 hPa WNW 6.4 km/h 14.5 km/h 63% 0 mm 104 W/m2
10:32 1.1 °C -5.2 °C 1020.9 hPa WSW 4.8 km/h 6.4 km/h 63% 0 mm 95 W/m2
10:38 1.2 °C -5.1 °C 1020.9 hPa West 3.2 km/h 6.4 km/h 63% 0 mm 98 W/m2
10:44 1.2 °C -5.1 °C 1020.9 hPa WNW 4.8 km/h 4.8 km/h 63% 0 mm 120 W/m2
10:50 1.3 °C -4.9 °C 1020.9 hPa WSW 4.8 km/h 4.8 km/h 63% 0 mm 142 W/m2
10:56 1.4 °C -4.8 °C 1021.2 hPa West 4.8 km/h 12.9 km/h 63% 0 mm 178 W/m2
11:02 1.6 °C -4.9 °C 1021.2 hPa West 6.4 km/h 9.7 km/h 62% 0 mm 195 W/m2
11:08 1.7 °C -4.8 °C 1021.2 hPa West 6.4 km/h 9.7 km/h 62% 0 mm 200 W/m2
11:14 1.8 °C -4.7 °C 1021.2 hPa West 6.4 km/h 8 km/h 62% 0 mm 248 W/m2
11:20 2 °C -4.7 °C 1021.2 hPa West 6.4 km/h 6.4 km/h 61% 0 mm 236 W/m2
11:26 2.4 °C -4.6 °C 1021.2 hPa WNW 6.4 km/h 9.7 km/h 60% 0 mm 497 W/m2
11:32 2.6 °C -4.8 °C 1021.2 hPa West 6.4 km/h 6.4 km/h 58% 0 mm 468 W/m2
11:38 2.6 °C -4.6 °C 1021.2 hPa WSW 8 km/h 9.7 km/h 59% 0 mm 448 W/m2
11:44 2.9 °C -4.8 °C 1021.2 hPa West 6.4 km/h 8 km/h 57% 0 mm 434 W/m2
11:50 3.1 °C -4.7 °C 1021.2 hPa NW 4.8 km/h 6.4 km/h 57% 0 mm 432 W/m2
11:56 3.2 °C -4.8 °C 1021.2 hPa WSW 4.8 km/h 6.4 km/h 56% 0 mm 432 W/m2
12:02 3.3 °C -4.4 °C 1021.2 hPa SW 4.8 km/h 4.8 km/h 57% 0 mm 432 W/m2
12:08 3.6 °C -4.2 °C 1021.2 hPa WSW 4.8 km/h 8 km/h 57% 0 mm 434 W/m2
12:14 3.3 °C -4.6 °C 1021.2 hPa WNW 4.8 km/h 8 km/h 56% 0 mm 434 W/m2
12:20 3.3 °C -4.8 °C 1020.9 hPa WNW 6.4 km/h 6.4 km/h 55% 0 mm 432 W/m2
12:26 3.7 °C -4.3 °C 1020.9 hPa NW 4.8 km/h 6.4 km/h 56% 0 mm 434 W/m2
12:32 3.6 °C -4.4 °C 1021.2 hPa West 4.8 km/h 6.4 km/h 56% 0 mm 431 W/m2
12:38 3.4 °C -4.8 °C 1020.9 hPa SW 6.4 km/h 14.5 km/h 55% 0 mm 429 W/m2
12:44 3.6 °C -4.8 °C 1020.9 hPa SW 6.4 km/h 6.4 km/h 54% 0 mm 425 W/m2
12:50 3.8 °C -4.7 °C 1020.9 hPa West 4.8 km/h 4.8 km/h 54% 0 mm 425 W/m2
12:56 3.6 °C -4.7 °C 1020.9 hPa WSW 4.8 km/h 6.4 km/h 55% 0 mm 420 W/m2
13:02 3.7 °C -4.8 °C 1020.9 hPa SW 4.8 km/h 6.4 km/h 54% 0 mm 418 W/m2
13:08 3.6 °C -4.9 °C 1021.2 hPa SW 4.8 km/h 6.4 km/h 54% 0 mm 425 W/m2
13:14 3.6 °C -4.8 °C 1021.2 hPa WNW 4.8 km/h 6.4 km/h 54% 0 mm 425 W/m2
13:20 4.1 °C -4.9 °C 1021.2 hPa West 4.8 km/h 4.8 km/h 52% 0 mm 496 W/m2
13:26 4.5 °C -4.8 °C 1021.2 hPa WSW 3.2 km/h 9.7 km/h 51% 0 mm 517 W/m2
13:32 4.2 °C -4.6 °C 1021.2 hPa WSW 4.8 km/h 4.8 km/h 53% 0 mm 527 W/m2
13:38 3.8 °C -4.9 °C 1021.2 hPa SSW 6.4 km/h 12.9 km/h 53% 0 mm 487 W/m2
13:44 4.1 °C -4.9 °C 1021.2 hPa West 6.4 km/h 9.7 km/h 52% 0 mm 527 W/m2
14:48 4.1 °C -5.7 °C 1021.9 hPa WSW 3.2 km/h 4.8 km/h 49% 0 mm 267 W/m2
14:54 4 °C -5.8 °C 1021.9 hPa West 3.2 km/h 4.8 km/h 49% 0 mm 253 W/m2
15:00 4.2 °C -5.3 °C 1021.9 hPa West 3.2 km/h 3.2 km/h 50% 0 mm 241 W/m2
15:06 4.3 °C -5.2 °C 1022.2 hPa West 1.6 km/h 4.8 km/h 50% 0 mm 227 W/m2
15:12 4.2 °C -5.6 °C 1022.2 hPa SW 1.6 km/h 3.2 km/h 49% 0 mm 214 W/m2
15:18 4.1 °C -5.4 °C 1022.2 hPa SW 1.6 km/h 3.2 km/h 50% 0 mm 200 W/m2
15:24 3.9 °C -5.6 °C 1022.2 hPa WSW 3.2 km/h 3.2 km/h 50% 0 mm 181 W/m2
15:30 3.9 °C -5.3 °C 1022.6 hPa WSW 3.2 km/h 3.2 km/h 51% 0 mm 172 W/m2
15:36 3.9 °C -5.6 °C 1022.9 hPa WSW 3.2 km/h 8 km/h 50% 0 mm 156 W/m2
15:42 3.8 °C -5.4 °C 1022.9 hPa WSW 1.6 km/h 3.2 km/h 51% 0 mm 135 W/m2
15:48 3.7 °C -5.5 °C 1023.2 hPa WSW 1.6 km/h 3.2 km/h 51% 0 mm 83 W/m2
15:54 3.6 °C -5.4 °C 1023.2 hPa WSW 1.6 km/h 1.6 km/h 52% 0 mm 25 W/m2
16:00 3.4 °C -5.5 °C 1023.2 hPa Calm   6.4 km/h 52% 0 mm 21 W/m2
16:06 3.2 °C -5.5 °C 1023.6 hPa SSW 1.6 km/h 9.7 km/h 53% 0 mm 19 W/m2
16:12 3.1 °C -5.8 °C 1023.9 hPa SW 3.2 km/h 3.2 km/h 52% 0 mm 21 W/m2
16:18 2.9 °C -5.7 °C 1023.9 hPa SW 3.2 km/h 11.3 km/h 53% 0 mm 14 W/m2
16:24 2.8 °C -5.8 °C 1023.9 hPa SW 1.6 km/h 3.2 km/h 53% 0 mm 12 W/m2
16:30 2.7 °C -5.7 °C 1023.9 hPa Calm   1.6 km/h 54% 0 mm 9 W/m2
16:36 2.5 °C -5.7 °C 1023.9 hPa Calm   3.2 km/h 55% 0 mm 7 W/m2
16:42 2.3 °C -5.6 °C 1024.3 hPa Calm     56% 0 mm 5 W/m2
16:48 2 °C -5.6 °C 1024.3 hPa Calm     57% 0 mm 0 W/m2
16:54 1.7 °C -5.4 °C 1024.3 hPa Calm     59% 0 mm 0 W/m2
17:00 1.3 °C -5.4 °C 1024.3 hPa Calm     61% 0 mm 0 W/m2
17:06 0.8 °C -5.5 °C 1024.3 hPa Calm     63% 0 mm 0 W/m2
17:12 0.3 °C -5.7 °C 1024.3 hPa Calm     64% 0 mm 0 W/m2
17:18 -0.2 °C -5.8 °C 1024.6 hPa Calm     66% 0 mm 0 W/m2
17:24 -0.5 °C -5.9 °C 1024.9 hPa Calm     67% 0 mm 0 W/m2
17:30 -0.7 °C -5.9 °C 1024.9 hPa Calm     68% 0 mm 0 W/m2
17:36 -0.9 °C -5.9 °C 1024.9 hPa Calm     69% 0 mm 0 W/m2
17:42 -1.2 °C -5.8 °C 1024.9 hPa Calm     71% 0 mm 0 W/m2
17:48 -1.3 °C -5.7 °C 1024.9 hPa Calm     72% 0 mm 0 W/m2
17:54 -1.5 °C -5.9 °C 1024.9 hPa Calm     72% 0 mm 0 W/m2
18:00 -1.7 °C -5.9 °C 1024.9 hPa Calm     73% 0 mm 0 W/m2
18:06 -2 °C -5.8 °C 1025.3 hPa Calm     75% 0 mm 0 W/m2
18:12 -2.2 °C -6 °C 1025.3 hPa Calm     75% 0 mm 0 W/m2
18:20 -2.3 °C -6.2 °C 1025.6 hPa Calm     75% 0 mm 0 W/m2
18:26 -2.4 °C -6.1 °C 1025.6 hPa Calm     76% 0 mm 0 W/m2
18:32 -2.6 °C -6.1 °C 1026 hPa Calm     77% 0 mm 0 W/m2
18:38 -2.7 °C -6.2 °C 1026 hPa Calm     77% 0 mm 0 W/m2
18:44 -2.7 °C -6.2 °C 1026 hPa Calm     77% 0 mm 0 W/m2
18:50 -2.7 °C -6 °C 1026 hPa Calm     78% 0 mm 0 W/m2
18:56 -2.8 °C -6.1 °C 1026 hPa Calm     78% 0 mm 0 W/m2
19:02 -2.9 °C -6.2 °C 1026 hPa Calm     78% 0 mm 0 W/m2
19:08 -3 °C -6.1 °C 1026 hPa Calm     79% 0 mm 0 W/m2
19:14 -3.1 °C -5.8 °C 1026 hPa Calm     81% 0 mm 0 W/m2
19:20 -3.2 °C -5.9 °C 1026 hPa Calm     81% 0 mm 0 W/m2
19:26 -3.2 °C -6 °C 1026 hPa Calm     81% 0 mm 0 W/m2
19:32 -3.3 °C -6.1 °C 1026 hPa Calm     81% 0 mm 0 W/m2
19:38 -3.4 °C -6 °C 1026 hPa Calm     82% 0 mm 0 W/m2
19:44 -3.4 °C -6.1 °C 1026.3 hPa Calm     82% 0 mm 0 W/m2
19:50 -3.6 °C -6.2 °C 1026.3 hPa Calm     82% 0 mm 0 W/m2
19:56 -3.6 °C -6.2 °C 1026.3 hPa Calm     82% 0 mm 0 W/m2
20:02 -3.6 °C -5.9 °C 1026.3 hPa Calm     84% 0 mm 0 W/m2
20:08 -3.7 °C -6.2 °C 1026.6 hPa Calm     83% 0 mm 0 W/m2
20:14 -3.8 °C -6.3 °C 1026.6 hPa Calm     83% 0 mm 0 W/m2
20:20 -3.8 °C -6.2 °C 1027 hPa Calm     84% 0 mm 0 W/m2
20:26 -3.9 °C -6.4 °C 1027 hPa Calm     83% 0 mm 0 W/m2
20:32 -3.9 °C -6.4 °C 1027 hPa Calm     83% 0 mm 0 W/m2
20:38 -3.8 °C -6.4 °C 1027 hPa Calm     82% 0 mm 0 W/m2
20:44 -3.9 °C -6.5 °C 1027 hPa Calm     82% 0 mm 0 W/m2
20:50 -3.9 °C -6.4 °C 1027 hPa Calm     83% 0 mm 0 W/m2
20:56 -4.1 °C -6.3 °C 1027 hPa Calm     84% 0 mm 0 W/m2
21:02 -4.2 °C -6.4 °C 1027 hPa Calm     84% 0 mm 0 W/m2
21:08 -4.3 °C -6.6 °C 1027.3 hPa Calm     84% 0 mm 0 W/m2
21:14 -4.3 °C -6.6 °C 1027.3 hPa Calm     84% 0 mm 0 W/m2
21:20 -4.4 °C -6.6 °C 1027.7 hPa Calm     85% 0 mm 0 W/m2
21:26 -4.5 °C -6.8 °C 1027.3 hPa Calm     84% 0 mm 0 W/m2
21:32 -4.6 °C -6.7 °C 1027 hPa Calm     85% 0 mm 0 W/m2
21:38 -4.6 °C -6.7 °C 1027 hPa Calm     85% 0 mm 0 W/m2
21:44 -4.6 °C -6.6 °C 1027.3 hPa Calm     86% 0 mm 0 W/m2
21:50 -4.6 °C -6.7 °C 1027.3 hPa Calm     85% 0 mm 0 W/m2
21:56 -4.5 °C -6.7 °C 1027.3 hPa Calm     85% 0 mm 0 W/m2
22:02 -4.4 °C -6.6 °C 1027.3 hPa Calm   1.6 km/h 85% 0 mm 0 W/m2
22:08 -4.4 °C -6.7 °C 1027.3 hPa Calm   1.6 km/h 84% 0 mm 0 W/m2
22:14 -4.4 °C -6.7 °C 1027.7 hPa Calm     84% 0 mm 0 W/m2
22:20 -4.4 °C -6.7 °C 1027.7 hPa Calm     84% 0 mm 0 W/m2
22:26 -4.6 °C -6.7 °C 1027.7 hPa Calm   1.6 km/h 85% 0 mm 0 W/m2
22:34 -4.6 °C -6.7 °C 1027.7 hPa Calm     85% 0 mm 0 W/m2
22:40 -4.7 °C -6.8 °C 1027.7 hPa Calm     85% 0 mm 0 W/m2
22:46 -4.7 °C -6.7 °C 1027.7 hPa Calm     86% 0 mm 0 W/m2
22:52 -4.8 °C -6.9 °C 1027.7 hPa Calm     85% 0 mm 0 W/m2
22:58 -4.8 °C -6.9 °C 1027.7 hPa Calm     85% 0 mm 0 W/m2
23:04 -4.9 °C -6.9 °C 1027.7 hPa Calm     86% 0 mm 0 W/m2
23:10 -5.1 °C -7.2 °C 1027.7 hPa Calm     85% 0 mm 0 W/m2
23:16 -5 °C -7.1 °C 1027.7 hPa Calm   3.2 km/h 85% 0 mm 0 W/m2
23:22 -5 °C -7.1 °C 1027.7 hPa Calm     85% 0 mm 0 W/m2
23:28 -4.9 °C -7.1 °C 1027.7 hPa Calm   1.6 km/h 85% 0 mm 0 W/m2
23:34 -5 °C -7.1 °C 1027.7 hPa Calm     85% 0 mm 0 W/m2
23:40 -5.1 °C -7.2 °C 1028 hPa Calm     85% 0 mm 0 W/m2
23:46 -4.7 °C -6.7 °C 1028 hPa ENE 1.6 km/h 1.6 km/h 86% 0 mm 0 W/m2
23:52 -4.4 °C -6.4 °C 1028 hPa ENE 1.6 km/h 3.2 km/h 86% 0 mm 0 W/m2
23:58 -4.4 °C -6.6 °C 1028 hPa ENE 1.6 km/h 3.2 km/h 85% 0 mm 0 W/m2
Country Meadow, Clay, NY, USA
Compliments of Weather Underground - 2 mb